Time;durP1;ratioP1;P1;durP2;ratioP2;P2;SDS_P1;SDS_P2;PMS_P1;PMS_P2;Temp;Humidity;BMP_temperature;BMP_pressure;BME280_temperature;BME280_humidity;BME280_pressure;Samples;Min_cycle;Max_cycle;Signal;HPM_P1;HPM_P2
2022/05/29 00:01:20;;;;;;;1.05;0.40;;;;;;;15.72;46.20;99739.22;4347798;32;32774;-86
2022/05/29 00:03:50;;;;;;;2.15;1.25;;;;;;;15.75;46.03;99732.81;4350429;32;33062;-86
2022/05/29 00:06:18;;;;;;;0.70;0.50;;;;;;;15.67;46.43;99737.81;4349171;32;33521;-86
2022/05/29 00:08:46;;;;;;;0.77;0.60;;;;;;;15.77;45.55;99734.44;4353209;32;34760;-86
2022/05/29 00:11:14;;;;;;;0.77;0.50;;;;;;;15.64;46.33;99730.03;4338505;32;32534;-86
2022/05/29 00:13:47;;;;;;;3.83;0.45;;;;;;;15.52;47.10;99732.47;4338902;32;32470;-86
2022/05/29 00:16:14;;;;;;;2.72;0.80;;;;;;;15.54;47.21;99725.25;4361714;32;34593;-86
2022/05/29 00:18:43;;;;;;;2.40;0.75;;;;;;;15.57;47.18;99732.19;4377661;32;33632;-86
2022/05/29 00:21:11;;;;;;;2.37;0.50;;;;;;;15.71;46.81;99726.84;4353300;32;33312;-86
2022/05/29 00:23:41;;;;;;;1.98;0.70;;;;;;;15.69;46.58;99714.59;4353547;32;32694;-86
2022/05/29 00:26:09;;;;;;;2.17;0.50;;;;;;;15.66;46.59;99725.44;4353155;32;33734;-86
2022/05/29 00:28:37;;;;;;;1.37;0.60;;;;;;;15.78;46.47;99722.81;4370970;32;33697;-86
2022/05/29 00:31:05;;;;;;;1.00;0.57;;;;;;;15.59;47.14;99723.16;4354989;32;33108;-86
2022/05/29 00:33:33;;;;;;;0.75;0.65;;;;;;;15.49;47.06;99719.37;4343947;32;33770;-86
2022/05/29 00:36:01;;;;;;;1.60;0.62;;;;;;;15.55;46.66;99713.66;4354435;32;33946;-86
2022/05/29 00:38:32;;;;;;;0.45;0.40;;;;;;;15.53;47.26;99712.06;4356584;32;33824;-86
2022/05/29 00:41:18;;;;;;;1.33;0.62;;;;;;;15.45;47.73;99712.56;4340828;32;33146;-86
2022/05/29 00:44:10;;;;;;;2.08;0.55;;;;;;;15.42;48.14;99704.75;4354688;32;32747;-86
2022/05/29 00:46:37;;;;;;;0.47;0.30;;;;;;;15.53;47.65;99704.09;4357251;32;33825;-86
2022/05/29 00:49:07;;;;;;;2.45;0.35;;;;;;;15.65;46.83;99703.28;4353380;32;33060;-86
2022/05/29 00:52:07;;;;;;;3.33;0.45;;;;;;;15.68;46.21;99699.59;4341393;32;32217;-86
2022/05/29 00:54:57;;;;;;;0.50;0.30;;;;;;;15.59;45.68;99691.22;4357568;32;33166;-87
2022/05/29 00:57:33;;;;;;;0.75;0.50;;;;;;;15.54;45.50;99688.00;4363020;32;34236;-88
2022/05/29 01:00:06;;;;;;;0.25;0.20;;;;;;;15.68;45.57;99683.63;4350605;32;33242;-88
2022/05/29 01:02:35;;;;;;;0.70;0.50;;;;;;;15.44;46.36;99684.25;4348685;32;33517;-87
2022/05/29 01:05:07;;;;;;;3.33;0.50;;;;;;;15.46;46.89;99687.66;4350769;32;33140;-87
2022/05/29 01:07:36;;;;;;;0.40;0.30;;;;;;;15.42;47.43;99685.28;4353292;32;32313;-86
2022/05/29 01:10:05;;;;;;;0.82;0.60;;;;;;;15.31;47.29;99681.53;4363072;32;33277;-87
2022/05/29 01:12:51;;;;;;;2.08;0.62;;;;;;;15.17;47.75;99678.06;4367185;32;32657;-87
2022/05/29 01:15:38;;;;;;;0.45;0.35;;;;;;;15.45;47.22;99677.97;4350439;32;32885;-88
2022/05/29 01:18:26;;;;;;;2.42;0.90;;;;;;;15.22;48.10;99679.47;4359802;32;33686;-87
2022/05/29 01:21:19;;;;;;;2.40;1.05;;;;;;;15.22;47.74;99681.28;4356012;32;33284;-87
2022/05/29 01:24:00;;;;;;;2.08;0.45;;;;;;;15.36;47.39;99674.09;4369850;32;32506;-85
2022/05/29 01:26:57;;;;;;;1.10;0.43;;;;;;;15.28;48.31;99681.72;4351187;32;32686;-88
2022/05/29 01:29:32;;;;;;;2.05;0.60;;;;;;;15.35;47.82;99685.69;4360359;32;33613;-88
2022/05/29 01:32:07;;;;;;;1.30;0.45;;;;;;;15.30;48.54;99678.97;4339175;33;33703;-86
2022/05/29 01:34:42;;;;;;;2.15;0.98;;;;;;;15.37;48.83;99682.94;4349258;32;33098;-88
2022/05/29 01:37:32;;;;;;;0.82;0.60;;;;;;;15.32;48.74;99682.38;4350089;32;34191;-88
2022/05/29 01:40:25;;;;;;;1.67;0.68;;;;;;;15.24;48.76;99684.66;4360314;32;33862;-88
2022/05/29 01:43:35;;;;;;;0.75;0.47;;;;;;;15.27;48.39;99690.66;4330871;33;33299;-88
2022/05/29 01:46:11;;;;;;;0.60;0.35;;;;;;;15.23;48.83;99688.28;4325560;32;33211;-87
2022/05/29 01:49:04;;;;;;;0.93;0.60;;;;;;;15.31;48.32;99686.00;4354447;32;33679;-88
2022/05/29 01:51:42;;;;;;;2.03;0.50;;;;;;;15.26;48.56;99688.97;4364426;32;33184;-87
2022/05/29 01:54:15;;;;;;;1.27;0.43;;;;;;;15.14;50.02;99689.72;4358131;32;33270;-87
2022/05/29 01:56:44;;;;;;;;;;;;;;;15.23;49.21;99688.28;4354496;32;32836;-87
2022/05/29 01:59:34;;;;;;;2.53;0.52;;;;;;;15.13;48.45;99692.50;4363955;32;32851;-87
2022/05/29 02:02:10;;;;;;;1.05;0.80;;;;;;;15.24;48.85;99690.88;4350132;32;33817;-87
2022/05/29 02:04:40;;;;;;;0.70;0.60;;;;;;;15.03;50.18;99687.78;4354059;32;34242;-87
2022/05/29 02:10:08;;;;;;;0.68;0.55;;;;;;;15.26;49.18;99674.81;4354452;32;33655;-87
2022/05/29 02:12:39;;;;;;;1.73;0.80;;;;;;;15.06;50.55;99678.75;4355538;32;32861;-87
2022/05/29 02:15:12;;;;;;;0.57;0.30;;;;;;;15.08;50.45;99672.38;4353585;32;34015;-87
2022/05/29 02:17:42;;;;;;;1.10;0.68;;;;;;;15.06;50.17;99670.78;4361577;32;33164;-86
2022/05/29 02:20:21;;;;;;;0.73;0.40;;;;;;;15.14;50.09;99670.25;4354832;32;33442;-86
2022/05/29 02:22:49;;;;;;;0.52;0.40;;;;;;;15.10;50.41;99670.47;4356304;32;33456;-87
2022/05/29 02:25:19;;;;;;;1.58;0.35;;;;;;;15.08;51.04;99661.72;4354570;32;31695;-86
2022/05/29 02:28:00;;;;;;;1.67;0.40;;;;;;;15.08;51.06;99661.72;4351213;32;33865;-87
2022/05/29 02:30:53;;;;;;;0.77;0.57;;;;;;;15.21;50.63;99659.16;4350788;32;32625;-87
2022/05/29 02:37:55;;;;;;;3.75;0.65;;;;;;;15.14;51.06;99659.63;4357105;32;35025;-86
2022/05/29 02:40:46;;;;;;;2.12;0.40;;;;;;;14.98;51.89;99665.94;4350549;32;33840;-85
2022/05/29 02:43:33;;;;;;;5.53;0.65;;;;;;;14.82;52.42;99657.25;4356200;32;34101;-85
2022/05/29 02:46:18;;;;;;;0.40;0.30;;;;;;;14.99;51.35;99653.50;4354447;32;34614;-85
2022/05/29 02:49:04;;;;;;;1.10;0.50;;;;;;;14.78;50.94;99655.72;4355431;32;33599;-87
2022/05/29 02:51:41;;;;;;;0.82;0.70;;;;;;;14.93;51.06;99653.91;4357871;32;33551;-86
2022/05/29 02:54:14;;;;;;;0.52;0.50;;;;;;;15.01;51.40;99647.12;4362289;32;32825;-87
2022/05/29 02:56:42;;;;;;;1.55;0.50;;;;;;;14.91;51.54;99646.03;4362340;32;33639;-87
2022/05/29 02:59:11;;;;;;;1.50;0.45;;;;;;;15.08;51.07;99642.28;4362100;32;34377;-87
2022/05/29 03:01:49;;;;;;;0.32;0.32;;;;;;;15.04;51.80;99649.59;4362134;32;32903;-87
2022/05/29 03:04:46;;;;;;;1.30;0.55;;;;;;;15.06;51.65;99647.69;4362085;32;32886;-87
2022/05/29 03:07:30;;;;;;;2.20;0.55;;;;;;;14.94;51.74;99651.13;4349759;32;33161;-87
2022/05/29 03:10:15;;;;;;;3.35;0.30;;;;;;;15.03;51.55;99634.59;4355094;32;33285;-87
2022/05/29 03:12:43;;;;;;;1.70;0.60;;;;;;;15.13;50.80;99640.16;4341907;32;32686;-87
2022/05/29 03:15:17;;;;;;;0.50;0.50;;;;;;;15.01;51.14;99631.19;4361336;32;33417;-88
2022/05/29 03:18:06;;;;;;;1.77;0.55;;;;;;;15.12;50.38;99627.81;4355260;32;32668;-88
2022/05/29 03:21:07;;;;;;;1.40;0.47;;;;;;;14.99;50.45;99627.75;4364426;32;33441;-87
2022/05/29 03:23:56;;;;;;;1.27;0.55;;;;;;;15.20;49.89;99622.88;4311548;32;33559;-85
2022/05/29 03:26:46;;;;;;;3.12;0.62;;;;;;;15.18;49.98;99626.56;4350953;32;31509;-85
2022/05/29 03:33:26;;;;;;;0.77;0.55;;;;;;;15.07;50.67;99619.28;4374022;32;33097;-88
2022/05/29 03:35:54;;;;;;;2.78;0.70;;;;;;;15.04;50.03;99619.47;4361880;32;33817;-89
2022/05/29 03:38:24;;;;;;;1.83;0.80;;;;;;;15.04;50.24;99617.69;4374098;32;33157;-86
2022/05/29 03:40:53;;;;;;;1.10;0.60;;;;;;;15.09;50.25;99622.69;4361671;32;33912;-88
2022/05/29 03:43:21;;;;;;;2.12;0.57;;;;;;;15.07;50.64;99614.81;4349624;32;34034;-86
2022/05/29 03:45:49;;;;;;;1.60;0.50;;;;;;;15.09;49.80;99607.59;4349403;32;33783;-86
2022/05/29 03:48:16;;;;;;;1.12;0.35;;;;;;;15.02;50.69;99606.31;4349381;32;33217;-86
2022/05/29 03:50:44;;;;;;;1.17;0.60;;;;;;;15.04;50.24;99612.34;4361529;32;32790;-89
2022/05/29 03:53:12;;;;;;;0.95;0.50;;;;;;;15.13;49.56;99623.34;4361580;32;33676;-89
2022/05/29 03:55:44;;;;;;;1.95;0.62;;;;;;;15.29;48.27;99624.94;4361467;32;33307;-89
2022/05/29 03:58:12;;;;;;;1.20;0.60;;;;;;;15.11;49.35;99626.97;4337265;32;33525;-89
2022/05/29 04:00:40;;;;;;;2.53;0.60;;;;;;;15.26;48.64;99616.28;4365702;32;32292;-90
2022/05/29 04:03:10;;;;;;;1.58;0.50;;;;;;;15.19;49.28;99622.94;4349354;32;32954;-89
2022/05/29 04:05:37;;;;;;;1.58;0.68;;;;;;;15.13;50.14;99626.00;4347286;32;33100;-87
2022/05/29 04:13:43;;;;;;;3.53;0.90;;;;;;;15.29;50.39;99616.09;4348563;32;34870;-89
2022/05/29 04:16:12;;;;;;;1.50;0.35;;;;;;;15.42;49.24;99616.97;4334385;33;34302;-89
2022/05/29 04:18:42;;;;;;;2.03;0.75;;;;;;;15.26;49.37;99616.28;4346517;33;33548;-89
2022/05/29 04:21:11;;;;;;;1.27;0.52;;;;;;;15.48;48.94;99610.41;4348398;32;33891;-89
2022/05/29 04:23:39;;;;;;;1.85;0.88;;;;;;;15.53;48.38;99610.94;4336241;33;33042;-89
2022/05/29 04:26:13;;;;;;;5.47;0.85;;;;;;;15.59;49.14;99615.84;4335881;33;34322;-88
2022/05/29 04:28:43;;;;;;;1.33;0.60;;;;;;;15.69;48.66;99610.78;4349372;32;32758;-90
2022/05/29 04:31:11;;;;;;;1.20;0.57;;;;;;;15.71;49.08;99614.19;4347723;32;33158;-89
2022/05/29 04:33:40;;;;;;;3.50;0.52;;;;;;;15.58;50.55;99617.66;4338896;32;33405;-89
2022/05/29 04:36:08;;;;;;;1.58;1.00;;;;;;;15.82;49.94;99606.34;4362890;32;32771;-89
2022/05/29 04:38:35;;;;;;;1.98;0.60;;;;;;;15.61;50.61;99605.94;4356887;32;32494;-89
2022/05/29 04:41:06;;;;;;;2.25;0.68;;;;;;;15.65;49.39;99615.47;4365656;32;33586;-89
2022/05/29 04:43:35;;;;;;;1.48;0.47;;;;;;;15.76;49.63;99612.06;4353266;32;32799;-89
2022/05/29 04:46:04;;;;;;;0.68;0.57;;;;;;;15.88;50.55;99614.75;4353173;32;34290;-88
2022/05/29 04:48:32;;;;;;;1.90;0.80;;;;;;;15.95;50.37;99617.88;4383507;32;33529;-88
2022/05/29 04:51:05;;;;;;;0.93;0.68;;;;;;;16.12;49.06;99614.88;4353080;32;33217;-88
2022/05/29 04:53:34;;;;;;;0.95;0.68;;;;;;;16.07;49.05;99618.81;4362667;32;34233;-88
2022/05/29 04:56:03;;;;;;;2.03;0.62;;;;;;;16.06;49.18;99615.31;4344532;32;33646;-88
2022/05/29 04:58:32;;;;;;;1.90;0.90;;;;;;;16.15;48.44;99615.62;4376391;32;32465;-89
2022/05/29 05:01:02;;;;;;;2.28;0.70;;;;;;;15.90;49.32;99619.97;4344841;32;34026;-88
2022/05/29 05:03:31;;;;;;;2.03;0.50;;;;;;;15.96;47.46;99624.88;4359623;32;34039;-89
2022/05/29 05:05:59;;;;;;;1.58;0.50;;;;;;;16.28;43.08;99624.44;4357131;32;32875;-89
2022/05/29 05:08:27;;;;;;;0.95;0.60;;;;;;;16.48;42.54;99615.06;4338870;32;32257;-89
2022/05/29 05:10:56;;;;;;;2.42;0.85;;;;;;;15.91;44.85;99613.69;4365722;32;34295;-89
2022/05/29 05:13:24;;;;;;;1.37;0.60;;;;;;;16.05;44.72;99613.59;4353016;32;33088;-90
2022/05/29 05:16:05;;;;;;;3.35;0.80;;;;;;;16.34;44.08;99610.72;4353260;32;32899;-90
2022/05/29 05:18:35;;;;;;;5.00;0.90;;;;;;;16.84;42.53;99616.94;4353508;32;32192;-90
2022/05/29 05:21:07;;;;;;;2.33;1.02;;;;;;;16.18;44.16;99626.06;4366150;32;33379;-90
2022/05/29 05:23:57;;;;;;;1.60;0.90;;;;;;;16.45;44.09;99621.47;4365543;32;33282;-89
2022/05/29 05:26:25;;;;;;;3.50;1.05;;;;;;;16.45;43.73;99617.94;4377762;32;34489;-89
2022/05/29 05:28:53;;;;;;;2.25;0.85;;;;;;;15.86;46.32;99621.16;4365064;32;33741;-88
2022/05/29 05:31:21;;;;;;;3.70;0.95;;;;;;;15.99;44.74;99613.16;4354905;32;33712;-88
2022/05/29 05:33:49;;;;;;;0.70;0.40;;;;;;;16.49;43.37;99616.78;4355475;32;33313;-88
2022/05/29 05:38:53;;;;;;;3.83;1.10;;;;;;;16.53;43.46;99613.78;4352073;32;32190;-88
2022/05/29 05:41:24;;;;;;;2.20;0.90;;;;;;;16.46;43.17;99622.31;4362646;32;32523;-90
2022/05/29 05:43:53;;;;;;;3.75;1.42;;;;;;;15.91;45.27;99618.19;4344119;32;33375;-87
2022/05/29 05:46:21;;;;;;;2.22;0.65;;;;;;;16.40;44.46;99618.25;4362537;32;32927;-86
2022/05/29 05:48:49;;;;;;;2.28;0.62;;;;;;;16.45;44.69;99612.59;4353195;32;33100;-85
2022/05/29 05:51:20;;;;;;;1.17;0.50;;;;;;;16.58;43.04;99611.63;4350019;32;33855;-86
2022/05/29 05:53:53;;;;;;;7.03;1.00;;;;;;;16.72;41.98;99608.00;4356730;32;34697;-85
2022/05/29 05:56:20;;;;;;;2.58;0.70;;;;;;;16.64;43.74;99605.84;4367784;32;34876;-85
2022/05/29 05:58:50;;;;;;;0.85;0.60;;;;;;;17.19;39.40;99595.69;4357296;32;33614;-85
2022/05/29 06:01:19;;;;;;;2.22;0.60;;;;;;;17.14;39.55;99604.03;4358974;32;34222;-85
2022/05/29 06:03:50;;;;;;;1.85;1.05;;;;;;;17.14;39.33;99609.38;4364638;32;33282;-85
2022/05/29 06:06:19;;;;;;;2.87;1.05;;;;;;;17.22;39.04;99600.78;4371238;32;32080;-85
2022/05/29 06:08:48;;;;;;;2.22;0.80;;;;;;;16.96;41.39;99607.19;4358520;32;33241;-85
2022/05/29 06:11:24;;;;;;;1.15;0.73;;;;;;;17.08;41.92;99599.13;4361641;32;35535;-86
2022/05/29 06:13:53;;;;;;;1.35;0.50;;;;;;;17.12;41.81;99605.94;4360757;32;33907;-86
2022/05/29 06:16:28;;;;;;;2.87;0.77;;;;;;;17.46;40.89;99603.41;4360957;32;34703;-85
2022/05/29 06:18:57;;;;;;;1.55;0.52;;;;;;;17.69;37.27;99592.81;4364109;32;33087;-85
2022/05/29 06:21:30;;;;;;;0.43;0.20;;;;;;;17.29;37.74;99601.19;4354280;32;32709;-85
2022/05/29 06:24:09;;;;;;;;;;;;;;;17.44;36.77;99594.69;4362509;32;33895;-85
2022/05/29 06:26:38;;;;;;;1.77;0.70;;;;;;;17.63;36.98;99594.16;4367939;32;34374;-83
2022/05/29 06:29:09;;;;;;;1.25;0.65;;;;;;;17.82;36.27;99594.47;4352868;32;32362;-82
2022/05/29 06:31:37;;;;;;;1.62;0.30;;;;;;;18.27;35.76;99588.31;4346889;32;32810;-85
2022/05/29 06:34:07;;;;;;;2.80;0.60;;;;;;;18.17;34.59;99599.75;4362974;32;34782;-83
2022/05/29 06:36:36;;;;;;;1.23;0.62;;;;;;;17.67;35.75;99607.16;4361451;32;33106;-83
2022/05/29 06:39:06;;;;;;;0.93;0.43;;;;;;;17.53;38.61;99609.16;4358114;32;33272;-86
2022/05/29 06:41:34;;;;;;;1.85;0.65;;;;;;;17.96;36.52;99601.44;4366999;32;34715;-85
2022/05/29 06:44:07;;;;;;;1.58;0.52;;;;;;;18.19;35.12;99605.00;4342771;32;32825;-83
2022/05/29 06:46:37;;;;;;;1.67;0.57;;;;;;;18.08;36.81;99595.13;4368046;32;34240;-84
2022/05/29 06:49:12;;;;;;;1.48;0.70;;;;;;;18.11;35.85;99591.38;4363834;32;35068;-84
2022/05/29 06:51:45;;;;;;;2.70;0.82;;;;;;;18.38;36.15;99585.69;4351208;32;32442;-84
2022/05/29 06:54:14;;;;;;;3.12;0.47;;;;;;;18.08;35.75;99592.44;4362400;32;33715;-86
2022/05/29 06:56:44;;;;;;;0.85;0.50;;;;;;;18.24;35.76;99583.25;4356866;32;33199;-86
2022/05/29 06:59:20;;;;;;;3.08;0.75;;;;;;;18.43;35.83;99596.84;4353742;32;34158;-87
2022/05/29 07:07:40;;;;;;;1.27;0.50;;;;;;;18.50;33.42;99589.19;4360579;32;32426;-86
2022/05/29 07:10:16;;;;;;;3.08;0.50;;;;;;;18.56;34.39;99594.03;4362204;32;33628;-86
2022/05/29 07:12:50;;;;;;;2.62;0.60;;;;;;;18.50;33.41;99589.19;4353546;32;32558;-86
2022/05/29 07:15:19;;;;;;;1.23;0.50;;;;;;;18.30;33.04;99588.09;4357655;32;33964;-86
2022/05/29 07:17:50;;;;;;;1.37;0.40;;;;;;;18.44;35.00;99579.84;4363386;32;33387;-86
2022/05/29 07:23:06;;;;;;;4.00;0.47;;;;;;;18.28;35.56;99584.72;4363624;32;34708;-85
2022/05/29 07:25:41;;;;;;;4.40;0.68;;;;;;;18.72;33.23;99591.88;4344578;32;33837;-86
2022/05/29 07:28:12;;;;;;;2.60;0.47;;;;;;;18.91;33.34;99584.06;4355069;32;33391;-85
2022/05/29 07:30:42;;;;;;;1.52;0.45;;;;;;;18.65;32.99;99578.09;4337125;32;31712;-87
2022/05/29 07:33:11;;;;;;;1.35;0.45;;;;;;;18.92;33.63;99575.03;4348939;32;34316;-88
2022/05/29 07:35:44;;;;;;;1.42;0.43;;;;;;;18.47;33.25;99576.94;4356648;32;33641;-86
2022/05/29 07:38:13;;;;;;;3.65;0.60;;;;;;;18.75;33.37;99582.72;4364455;32;34115;-87
2022/05/29 07:40:44;;;;;;;0.77;0.50;;;;;;;18.41;34.03;99582.75;4357269;32;32825;-86
2022/05/29 07:43:21;;;;;;;2.60;0.57;;;;;;;18.64;32.13;99576.41;4358334;32;33599;-86
2022/05/29 07:45:58;;;;;;;3.10;0.60;;;;;;;18.52;32.96;99572.06;4356297;32;33637;-87
2022/05/29 07:48:28;;;;;;;1.90;0.88;;;;;;;18.41;32.92;99570.22;4339751;32;33400;-86
2022/05/29 07:50:59;;;;;;;0.68;0.52;;;;;;;18.19;32.38;99564.06;4359260;32;33045;-87
2022/05/29 07:53:35;;;;;;;2.85;0.30;;;;;;;18.64;32.19;99563.03;4357093;32;34554;-86
2022/05/29 07:56:04;;;;;;;;;;;;;;;18.59;32.90;99562.56;4351162;32;32783;-86
2022/05/29 07:58:40;;;;;;;0.55;0.47;;;;;;;18.68;32.14;99567.19;4377713;32;33696;-86
2022/05/29 08:01:11;;;;;;;;;;;;;;;18.76;32.85;99557.72;4340107;33;31934;-86
2022/05/29 08:03:46;;;;;;;0.60;0.30;;;;;;;18.72;33.59;99558.94;4372509;32;34182;-86
2022/05/29 08:06:20;;;;;;;1.62;0.43;;;;;;;18.40;35.14;99559.66;4359483;32;34189;-86
2022/05/29 08:11:25;;;;;;;1.23;0.28;;;;;;;18.80;32.53;99560.00;4361761;32;34317;-86
2022/05/29 08:13:56;;;;;;;1.95;0.50;;;;;;;18.65;32.65;99546.00;4359007;32;34662;-86
2022/05/29 08:16:25;;;;;;;0.50;0.30;;;;;;;18.78;32.29;99555.75;4354011;32;33520;-86
2022/05/29 08:18:55;;;;;;;1.50;0.50;;;;;;;18.64;34.81;99548.81;4363197;32;33903;-86
2022/05/29 08:21:25;;;;;;;0.43;0.43;;;;;;;18.62;33.19;99548.94;4358356;32;34096;-86
2022/05/29 08:32:44;;;;;;;4.47;0.40;;;;;;;18.88;33.29;99540.66;4369379;32;31867;-86
2022/05/29 08:35:13;;;;;;;0.90;0.45;;;;;;;19.12;33.26;99535.94;4373525;32;34478;-88
2022/05/29 08:37:41;;;;;;;1.35;0.40;;;;;;;18.80;36.30;99543.97;4355624;32;33919;-86
2022/05/29 08:40:12;;;;;;;3.35;0.65;;;;;;;19.56;33.04;99539.41;4356239;32;33900;-86
2022/05/29 08:42:41;;;;;;;1.48;0.65;;;;;;;19.11;32.36;99544.09;4346632;32;32729;-86
2022/05/29 08:45:15;;;;;;;1.02;0.37;;;;;;;18.78;32.98;99537.03;4358902;32;34241;-86
2022/05/29 08:47:45;;;;;;;1.40;0.80;;;;;;;18.68;33.74;99537.78;4354367;32;32553;-87
2022/05/29 08:50:21;;;;;;;2.12;0.40;;;;;;;18.79;34.21;99531.53;4362402;32;33649;-87
2022/05/29 08:53:03;;;;;;;0.60;0.40;;;;;;;18.61;34.00;99541.91;4353497;32;34094;-87
2022/05/29 08:55:45;;;;;;;2.03;0.77;;;;;;;18.90;35.50;99536.03;4362006;32;33493;-87
2022/05/29 08:58:37;;;;;;;2.05;0.52;;;;;;;19.39;33.93;99521.22;4358831;32;33833;-86
2022/05/29 09:01:10;;;;;;;2.55;0.80;;;;;;;19.42;31.81;99523.66;4358858;32;33658;-86
2022/05/29 09:03:57;;;;;;;2.67;0.37;;;;;;;19.01;32.28;99535.13;4357587;32;32831;-87
2022/05/29 09:06:34;;;;;;;1.67;0.60;;;;;;;19.13;32.04;99518.91;4355731;32;33408;-86
2022/05/29 09:09:27;;;;;;;0.68;0.30;;;;;;;19.06;31.42;99533.78;4348870;32;33533;-86
2022/05/29 09:14:48;;;;;;;1.73;0.68;;;;;;;19.09;31.44;99527.34;4366716;32;34073;-86
2022/05/29 09:17:42;;;;;;;1.00;0.47;;;;;;;19.27;31.24;99524.91;4355882;32;33228;-86
2022/05/29 09:20:41;;;;;;;0.73;0.40;;;;;;;19.40;30.98;99525.59;4355672;32;33709;-86
2022/05/29 09:23:15;;;;;;;1.30;0.40;;;;;;;19.49;30.44;99524.81;4364157;32;33737;-86
2022/05/29 09:25:46;;;;;;;1.25;0.50;;;;;;;19.55;31.07;99513.56;4357366;32;33180;-87
2022/05/29 09:28:24;;;;;;;3.83;0.55;;;;;;;19.60;31.72;99510.53;4358415;32;33662;-86
2022/05/29 09:31:05;;;;;;;4.55;0.62;;;;;;;19.60;34.40;99518.56;4346878;32;34841;-87
2022/05/29 09:33:41;;;;;;;2.20;0.50;;;;;;;19.51;31.09;99505.94;4356869;32;32739;-87
2022/05/29 09:36:23;;;;;;;1.70;0.60;;;;;;;19.71;30.70;99506.94;4355332;32;33475;-86
2022/05/29 09:38:57;;;;;;;1.40;0.68;;;;;;;19.55;31.72;99508.22;4359180;32;32773;-86
2022/05/29 09:41:35;;;;;;;3.10;0.70;;;;;;;19.54;33.45;99514.56;4341911;32;32870;-86
2022/05/29 09:44:10;;;;;;;1.48;0.40;;;;;;;19.85;30.66;99504.78;4342653;32;30807;-86
2022/05/29 09:46:46;;;;;;;1.62;0.50;;;;;;;19.64;31.72;99510.12;4358857;32;33420;-86
2022/05/29 09:49:41;;;;;;;8.68;0.43;;;;;;;20.06;30.40;99507.41;4354114;32;33884;-87
2022/05/29 09:52:19;;;;;;;1.20;0.20;;;;;;;19.99;30.51;99500.00;4346823;32;32513;-86
2022/05/29 09:54:58;;;;;;;1.08;0.55;;;;;;;19.71;30.21;99498.91;4364746;32;34042;-85
2022/05/29 09:57:58;;;;;;;1.60;0.47;;;;;;;19.94;29.34;99503.13;4357686;32;35205;-85
2022/05/29 10:00:36;;;;;;;0.65;0.47;;;;;;;19.69;29.16;99502.56;4357546;32;33237;-86
2022/05/29 10:03:08;;;;;;;1.20;0.47;;;;;;;19.79;31.52;99496.41;4357913;32;34142;-86
2022/05/29 10:05:41;;;;;;;1.08;0.40;;;;;;;20.14;31.61;99494.19;4357377;32;34076;-86
2022/05/29 10:08:21;;;;;;;1.67;0.70;;;;;;;19.97;31.37;99499.31;4342016;32;32700;-85
2022/05/29 10:10:53;;;;;;;1.58;0.50;;;;;;;19.79;29.92;99493.72;4357925;32;33928;-86
2022/05/29 10:13:42;;;;;;;1.08;0.70;;;;;;;20.21;28.77;99483.75;4367572;32;33633;-86
2022/05/29 10:16:13;;;;;;;2.70;0.70;;;;;;;19.86;29.97;99485.03;4357871;32;34089;-87
2022/05/29 10:18:44;;;;;;;0.47;0.40;;;;;;;19.83;29.36;99481.75;4352538;32;33592;-87
2022/05/29 10:26:58;;;;;;;2.35;0.77;;;;;;;19.41;32.35;99482.59;4355673;32;35694;-86
2022/05/29 10:29:33;;;;;;;5.45;0.98;;;;;;;19.43;32.75;99490.53;4357959;32;34014;-86
2022/05/29 10:34:42;;;;;;;5.85;0.73;;;;;;;19.90;30.88;99480.25;4356347;32;33843;-85
2022/05/29 10:37:36;;;;;;;3.60;0.68;;;;;;;19.48;31.66;99479.44;4360489;32;32948;-85
2022/05/29 10:40:26;;;;;;;1.33;0.43;;;;;;;19.54;31.52;99485.09;4363274;32;33021;-86
2022/05/29 10:43:04;;;;;;;1.15;0.60;;;;;;;19.65;32.44;99465.44;4361517;32;32895;-86
2022/05/29 10:45:41;;;;;;;1.10;0.80;;;;;;;19.66;31.80;99472.53;4368299;32;34512;-86
2022/05/29 10:48:53;;;;;;;2.45;0.70;;;;;;;19.48;32.76;99469.56;4360150;32;33877;-86
2022/05/29 10:51:51;;;;;;;1.52;0.50;;;;;;;19.73;32.94;99472.84;4366254;32;33145;-86
2022/05/29 10:54:26;;;;;;;2.10;0.70;;;;;;;19.24;32.93;99466.31;4366410;32;33889;-85
2022/05/29 10:57:03;;;;;;;3.70;0.40;;;;;;;19.37;31.13;99466.94;4360082;32;33877;-86
2022/05/29 10:59:58;;;;;;;0.47;0.32;;;;;;;19.59;32.58;99464.12;4357402;32;33877;-85
2022/05/29 11:06:23;;;;;;;3.55;0.60;;;;;;;19.44;30.88;99460.09;4359662;32;32923;-86
2022/05/29 11:09:11;;;;;;;2.25;0.82;;;;;;;19.21;34.91;99469.25;4357916;32;32034;-86
2022/05/29 11:11:51;;;;;;;1.23;0.47;;;;;;;19.50;32.03;99456.03;4369884;32;33284;-96
2022/05/29 11:14:30;;;;;;;2.25;1.00;;;;;;;19.74;32.30;99458.44;4368335;32;31753;-88
2022/05/29 11:17:38;;;;;;;3.50;0.60;;;;;;;19.37;32.44;99466.94;4354665;32;32534;-88
2022/05/29 11:20:14;;;;;;;0.90;0.40;;;;;;;19.60;32.64;99468.53;4368872;32;32130;-87
2022/05/29 11:23:02;;;;;;;1.27;0.37;;;;;;;19.74;32.29;99459.28;4370344;32;33617;-89
2022/05/29 11:25:32;;;;;;;2.12;0.47;;;;;;;19.55;32.45;99457.31;4369048;32;33606;-88
2022/05/29 11:28:21;;;;;;;0.50;0.30;;;;;;;19.62;32.27;99450.50;4372526;32;33604;-88
2022/05/29 11:31:06;;;;;;;2.65;0.50;;;;;;;19.71;32.79;99440.00;4362992;32;33216;-89
2022/05/29 11:33:51;;;;;;;1.70;1.20;;;;;;;19.68;34.41;99439.25;4345329;32;34556;-90
2022/05/29 11:36:59;;;;;;;1.27;0.50;;;;;;;19.61;32.95;99442.63;4354593;32;33688;-89
2022/05/29 11:39:41;;;;;;;0.82;0.40;;;;;;;19.75;33.48;99438.72;4358552;32;33990;-89
2022/05/29 11:45:09;;;;;;;2.50;1.30;;;;;;;19.93;31.71;99431.75;4371549;32;33324;-88
2022/05/29 11:57:12;;;;;;;0.60;0.35;;;;;;;19.39;34.27;99422.16;4353971;32;34175;-89
2022/05/29 11:59:54;;;;;;;2.47;1.02;;;;;;;19.93;32.16;99429.91;4354970;32;33092;-88
2022/05/29 12:02:33;;;;;;;0.32;0.30;;;;;;;20.04;31.71;99426.28;4354158;32;32760;-89
2022/05/29 12:05:28;;;;;;;1.08;0.30;;;;;;;19.99;31.05;99428.53;4352828;32;34357;-89
2022/05/29 12:10:58;;;;;;;;;;;;;;;20.25;32.72;99417.31;4352957;32;32874;-88
2022/05/29 12:13:32;;;;;;;4.50;0.50;;;;;;;20.40;31.43;99418.59;4372799;32;33233;-88
2022/05/29 12:16:09;;;;;;;1.10;0.65;;;;;;;20.15;30.74;99415.44;4341534;32;33910;-88
2022/05/29 12:18:52;;;;;;;0.35;0.35;;;;;;;19.99;29.52;99415.13;4356960;32;32716;-89
2022/05/29 12:21:37;;;;;;;2.25;0.70;;;;;;;19.99;33.06;99414.25;4352239;32;32352;-88
2022/05/29 12:27:20;;;;;;;1.52;0.50;;;;;;;19.91;31.30;99406.94;4354093;32;33656;-89
2022/05/29 12:30:05;;;;;;;0.88;0.57;;;;;;;19.84;31.77;99411.12;4368446;32;34204;-88
2022/05/29 12:35:26;;;;;;;3.97;0.57;;;;;;;19.77;31.59;99415.34;4352598;32;33580;-88
2022/05/29 12:38:03;;;;;;;1.58;0.60;;;;;;;19.57;32.33;99417.91;4339715;32;33334;-89
2022/05/29 12:40:50;;;;;;;1.50;0.88;;;;;;;19.59;33.22;99415.06;4357541;32;34111;-88
2022/05/29 12:43:26;;;;;;;1.62;0.60;;;;;;;20.31;31.11;99409.56;4357851;32;32851;-88
2022/05/29 12:46:13;;;;;;;1.98;0.85;;;;;;;19.90;33.19;99414.13;4356868;32;34021;-88
2022/05/29 12:49:09;;;;;;;1.27;0.70;;;;;;;20.16;31.97;99411.78;4370171;32;34878;-88
2022/05/29 12:52:26;;;;;;;0.80;0.60;;;;;;;20.60;31.89;99409.59;4358713;32;33449;-89
2022/05/29 12:55:37;;;;;;;0.90;0.70;;;;;;;19.95;32.94;99419.06;4302870;32;32075;-89
2022/05/29 12:58:26;;;;;;;2.35;0.93;;;;;;;20.14;31.46;99413.75;4366728;32;32622;-88
2022/05/29 13:01:26;;;;;;;1.37;0.60;;;;;;;19.90;32.67;99410.59;4357870;32;33948;-89
2022/05/29 13:04:20;;;;;;;0.75;0.40;;;;;;;20.12;32.19;99412.19;4348055;32;32757;-89
2022/05/29 13:07:15;;;;;;;1.48;0.82;;;;;;;19.87;31.67;99406.34;4374465;32;32375;-89
2022/05/29 13:10:01;;;;;;;3.33;0.75;;;;;;;20.24;32.11;99410.25;4357433;32;33378;-88
2022/05/29 13:12:48;;;;;;;1.65;0.50;;;;;;;19.78;32.33;99422.37;4359004;32;32952;-89
2022/05/29 13:15:35;;;;;;;0.80;0.40;;;;;;;19.44;32.79;99414.56;4347382;32;32346;-88
2022/05/29 13:21:16;;;;;;;1.20;0.55;;;;;;;19.88;31.36;99417.91;4355281;32;33375;-89
2022/05/29 13:23:53;;;;;;;1.55;0.40;;;;;;;19.62;31.90;99418.38;4348312;32;33016;-89
2022/05/29 13:26:30;;;;;;;1.02;0.50;;;;;;;19.36;32.41;99422.41;4358060;32;32151;-88
2022/05/29 13:29:07;;;;;;;1.60;0.50;;;;;;;19.55;32.19;99416.31;4346988;32;34679;-89
2022/05/29 13:32:13;;;;;;;1.27;0.47;;;;;;;19.24;32.87;99407.44;4359289;32;33432;-89
2022/05/29 13:34:47;;;;;;;2.50;0.70;;;;;;;19.69;31.74;99403.44;4368880;32;33470;-89
2022/05/29 13:37:50;;;;;;;0.37;0.30;;;;;;;20.05;32.31;99411.91;4360988;32;32989;-88